Kosmosdale, Kentucky
Current Conditions -  °F | °C
As of 3:56 PM on Saturday 25 Oct 2014 (Local Time) from KSDF Reporting Station
Few Clouds Few Clouds  
Wind Chill: 76°   Ceiling: Unl
Heat Index: 76°   Visibility: 10mi
Dew Point: 59°   Wind: 17mph
Humidity: 56%   Direction: 250°WSW
Pressure: 29.95"   Gusts: NA
Location:  38.0866°N, 85.8492°W
Report Text: KSDF 251956Z 25015KT 10SM FEW040 24/15 A2995 RMK AO2 SLP139 T02440150
Loading
Personal Weather Stations






























Interactive Weather Map
Tropical Storm Tracking
New forecast layout! Learn more

10-Day Weather Forecast

Advertisements
Track Severe Weather on mobile